createdAt,value
2018-06-21T00:00:45.622Z,4.15
2018-06-21T00:03:14.094Z,4.55
2018-06-21T00:05:42.559Z,4.60
2018-06-21T00:08:14.976Z,4.75
2018-06-21T00:10:44.802Z,4.70
2018-06-21T00:13:13.257Z,4.28
2018-06-21T00:15:45.824Z,4.65
2018-06-21T00:18:14.279Z,4.40
2018-06-21T00:20:43.090Z,4.85
2018-06-21T00:23:12.162Z,4.25
2018-06-21T00:25:40.620Z,4.25
2018-06-21T00:28:09.059Z,4.40
2018-06-21T00:30:37.583Z,4.53
2018-06-21T00:33:06.114Z,4.53
2018-06-21T00:35:34.606Z,4.45
2018-06-21T00:38:03.209Z,4.50
2018-06-21T00:40:31.694Z,4.80
2018-06-21T00:43:00.410Z,4.45
2018-06-21T00:45:28.918Z,5.00
2018-06-21T00:47:57.368Z,4.80
2018-06-21T00:50:25.887Z,5.12
2018-06-21T00:52:55.043Z,4.97
2018-06-21T00:55:35.105Z,4.55
2018-06-21T00:58:04.345Z,4.65
2018-06-21T01:00:34.386Z,4.22
2018-06-21T01:03:03.564Z,4.03
2018-06-21T01:05:32.045Z,3.95
2018-06-21T01:08:00.720Z,4.28
2018-06-21T01:10:29.304Z,4.30
2018-06-21T01:12:57.788Z,4.03
2018-06-21T01:15:26.221Z,4.35
2018-06-21T01:17:54.682Z,4.53
2018-06-21T01:20:23.142Z,4.15
2018-06-21T01:22:51.670Z,4.40
2018-06-21T01:25:20.137Z,4.30
2018-06-21T01:27:49.098Z,4.25
2018-06-21T01:30:17.574Z,4.30
2018-06-21T01:32:46.166Z,4.65
2018-06-21T01:35:14.742Z,4.53
2018-06-21T01:37:43.263Z,4.35
2018-06-21T01:40:11.740Z,4.35
2018-06-21T01:42:41.203Z,4.65
2018-06-21T01:45:10.799Z,4.85
2018-06-21T01:47:39.338Z,4.67
2018-06-21T01:50:07.806Z,4.95
2018-06-21T01:52:36.545Z,4.60
2018-06-21T01:55:09.225Z,4.67
2018-06-21T01:57:37.656Z,4.45
2018-06-21T02:00:06.798Z,4.40
2018-06-21T02:02:35.766Z,5.40
2018-06-21T02:05:04.421Z,4.55
2018-06-21T02:07:32.883Z,4.62
2018-06-21T02:10:01.338Z,5.45
2018-06-21T02:12:29.814Z,4.70
2018-06-21T02:14:58.831Z,4.85
2018-06-21T02:17:31.712Z,4.87
2018-06-21T02:20:00.677Z,5.28
2018-06-21T02:22:29.585Z,5.60
2018-06-21T02:24:58.020Z,4.90
2018-06-21T02:27:26.461Z,5.70
2018-06-21T02:29:54.914Z,5.58
2018-06-21T02:32:27.304Z,5.70
2018-06-21T02:34:55.771Z,5.22
2018-06-21T02:37:24.237Z,4.92
2018-06-21T02:39:52.694Z,5.05
2018-06-21T02:42:21.224Z,5.12
2018-06-21T02:44:49.697Z,4.92
2018-06-21T02:47:18.865Z,5.47
2018-06-21T02:49:47.338Z,5.40
2018-06-21T02:52:15.859Z,5.60
2018-06-21T02:54:44.339Z,5.45
2018-06-21T02:57:12.848Z,5.65
2018-06-21T02:59:41.329Z,5.30
2018-06-21T03:02:09.761Z,5.80
2018-06-21T03:04:38.897Z,5.72
2018-06-21T03:07:07.710Z,5.90
2018-06-21T03:09:36.342Z,6.05
2018-06-21T03:12:08.589Z,5.55
2018-06-21T03:14:37.038Z,5.72
2018-06-21T03:17:05.465Z,6.17
2018-06-21T03:19:35.552Z,6.08
2018-06-21T03:22:03.974Z,5.67
2018-06-21T03:24:33.114Z,5.90
2018-06-21T03:27:01.632Z,6.22
2018-06-21T03:29:30.795Z,6.22
2018-06-21T03:31:59.350Z,6.30
2018-06-21T03:34:28.718Z,6.20
2018-06-21T03:36:57.167Z,5.97
2018-06-21T03:39:25.618Z,5.90
2018-06-21T03:41:54.412Z,6.65
2018-06-21T03:44:22.907Z,6.60
2018-06-21T03:46:51.389Z,7.05
2018-06-21T03:49:19.842Z,6.28
2018-06-21T03:51:48.367Z,16.00
2018-06-21T03:54:17.395Z,6.35
2018-06-21T03:56:50.673Z,6.35
2018-06-21T03:59:19.182Z,5.60
2018-06-21T04:01:47.813Z,5.85
2018-06-21T04:04:20.480Z,6.37
2018-06-21T04:06:49.477Z,5.22
2018-06-21T04:09:19.474Z,5.15
2018-06-21T04:11:48.671Z,4.72
2018-06-21T04:14:17.390Z,4.60
2018-06-21T04:16:45.839Z,4.90
2018-06-21T04:19:15.578Z,4.50
2018-06-21T04:21:45.943Z,4.90
2018-06-21T04:24:15.765Z,6.72
2018-06-21T04:26:44.467Z,15.58
2018-06-21T04:29:13.178Z,11.75
2018-06-21T04:31:42.133Z,5.20
2018-06-21T04:34:10.626Z,8.58
2018-06-21T04:36:39.393Z,7.03
2018-06-21T04:39:09.178Z,7.17
2018-06-21T04:41:37.675Z,5.62
2018-06-21T04:53:56.159Z,5.25
2018-06-21T04:56:29.071Z,5.12
2018-06-21T04:58:57.550Z,5.65
2018-06-21T05:14:26.424Z,6.22
2018-06-21T05:16:55.299Z,5.90
2018-06-21T05:19:28.279Z,6.60
2018-06-21T05:21:58.547Z,5.97
2018-06-21T05:24:27.649Z,5.95
2018-06-21T05:26:56.194Z,6.33
2018-06-21T05:29:24.605Z,5.60
2018-06-21T05:31:53.424Z,6.42
2018-06-21T05:34:21.890Z,5.70
2018-06-21T05:36:50.332Z,5.40
2018-06-21T05:39:19.320Z,5.35
2018-06-21T05:41:47.857Z,5.40
2018-06-21T05:44:16.612Z,5.30
2018-06-21T05:46:46.837Z,5.10
2018-06-21T05:49:16.545Z,5.80
2018-06-21T05:51:50.320Z,5.30
2018-06-21T05:54:18.753Z,5.30
2018-06-21T05:56:47.350Z,4.65
2018-06-21T05:59:16.437Z,4.85
2018-06-21T06:01:46.004Z,4.92
2018-06-21T06:04:15.343Z,4.60
2018-06-21T06:06:45.163Z,5.10
2018-06-21T06:09:14.479Z,4.87
2018-06-21T06:11:42.981Z,5.90
2018-06-21T06:14:12.442Z,5.00
2018-06-21T06:16:41.273Z,5.42
2018-06-21T06:19:09.696Z,5.55
2018-06-21T06:21:38.096Z,5.53
2018-06-21T06:24:07.368Z,5.20
2018-06-21T06:26:35.752Z,4.92
2018-06-21T06:29:04.873Z,4.90
2018-06-21T06:31:33.632Z,4.78
2018-06-21T06:34:02.197Z,4.90
2018-06-21T06:36:30.753Z,5.10
2018-06-21T06:39:16.886Z,4.80
2018-06-21T06:41:46.669Z,4.80
2018-06-21T06:44:15.125Z,4.97
2018-06-21T06:46:43.732Z,5.40
2018-06-21T06:49:12.701Z,5.30
2018-06-21T06:51:41.635Z,6.53
2018-06-21T06:54:11.104Z,7.20
2018-06-21T06:56:39.726Z,7.25
2018-06-21T06:59:08.220Z,7.65
2018-06-21T07:01:36.657Z,7.12
2018-06-21T07:04:05.212Z,8.73
2018-06-21T07:06:33.617Z,8.68
2018-06-21T07:09:02.021Z,8.43
2018-06-21T07:11:30.421Z,8.25
2018-06-21T07:13:59.500Z,7.87
2018-06-21T07:16:28.150Z,7.83
2018-06-21T07:18:56.601Z,7.58
2018-06-21T07:21:25.679Z,8.88
2018-06-21T07:23:54.109Z,12.20
2018-06-21T07:26:22.657Z,13.68
2018-06-21T07:28:51.832Z,12.07
2018-06-21T07:31:20.322Z,8.05
2018-06-21T07:33:48.729Z,7.50
2018-06-21T07:36:17.171Z,5.83
2018-06-21T07:38:46.298Z,2.77
2018-06-21T07:41:15.327Z,1.30
2018-06-21T07:43:43.788Z,1.35
2018-06-21T07:46:12.721Z,1.30
2018-06-21T07:48:41.272Z,1.45
2018-06-21T07:51:09.907Z,1.30
2018-06-21T07:53:38.321Z,1.40
2018-06-21T07:56:06.717Z,1.60
2018-06-21T07:58:35.172Z,1.40
2018-06-21T08:01:03.713Z,1.62
2018-06-21T08:03:32.504Z,1.65
2018-06-21T08:06:01.276Z,1.85
2018-06-21T08:08:30.184Z,1.90
2018-06-21T08:10:58.940Z,1.90
2018-06-21T08:13:27.465Z,2.10
2018-06-21T08:15:55.875Z,2.10
2018-06-21T08:18:24.425Z,1.77
2018-06-21T08:20:53.054Z,1.87
2018-06-21T08:23:21.746Z,2.17
2018-06-21T08:25:50.232Z,2.00
2018-06-21T08:28:18.823Z,1.82
2018-06-21T08:30:47.273Z,2.00
2018-06-21T08:33:15.692Z,2.02
2018-06-21T08:35:44.265Z,2.70
2018-06-21T08:38:12.711Z,2.92
2018-06-21T08:40:41.753Z,2.40
2018-06-21T08:43:10.185Z,2.60
2018-06-21T08:45:38.651Z,2.17
2018-06-21T08:48:07.201Z,2.10
2018-06-21T08:50:35.713Z,2.45
2018-06-21T08:53:05.005Z,2.12
2018-06-21T08:55:33.453Z,2.27
2018-06-21T08:58:01.890Z,2.30
2018-06-21T09:00:30.945Z,2.75
2018-06-21T09:02:59.437Z,2.27
2018-06-21T09:05:27.880Z,2.80
2018-06-21T09:07:56.932Z,2.83
2018-06-21T09:10:25.358Z,2.40
2018-06-21T09:12:54.380Z,2.80
2018-06-21T09:15:22.848Z,2.27
2018-06-21T09:17:51.456Z,2.95
2018-06-21T09:20:20.248Z,2.52
2018-06-21T09:22:48.753Z,3.60
2018-06-21T09:25:17.581Z,3.30
2018-06-21T09:27:46.866Z,3.10
2018-06-21T09:30:16.014Z,3.37
2018-06-21T09:34:46.487Z,3.62
2018-06-21T09:37:14.685Z,3.12
2018-06-21T09:39:48.477Z,2.72
2018-06-21T09:43:22.757Z,2.72
2018-06-21T09:45:56.309Z,3.12
2018-06-21T09:48:31.002Z,3.12
2018-06-21T09:51:00.100Z,3.25
2018-06-21T09:53:28.900Z,3.42
2018-06-21T09:55:57.776Z,3.47
2018-06-21T09:58:25.957Z,3.17
2018-06-21T10:01:01.988Z,3.67
2018-06-21T10:03:31.149Z,3.65
2018-06-21T10:05:59.340Z,3.65
2018-06-21T10:08:28.578Z,3.65
2018-06-21T10:10:56.756Z,3.33
2018-06-21T10:13:24.919Z,3.45
2018-06-21T10:15:53.884Z,3.10
2018-06-21T10:18:22.049Z,3.00
2018-06-21T10:20:50.325Z,3.37
2018-06-21T10:23:19.771Z,3.33
2018-06-21T10:25:48.216Z,3.67
2018-06-21T10:28:16.380Z,3.17
2018-06-21T10:30:45.245Z,2.80
2018-06-21T10:33:13.425Z,2.30
2018-06-21T10:35:46.192Z,1.90
2018-06-21T10:38:14.385Z,2.55
2018-06-21T10:40:42.536Z,2.33
2018-06-21T10:43:10.773Z,2.05
2018-06-21T10:45:38.939Z,1.75
2018-06-21T10:48:08.148Z,1.95
2018-06-21T10:50:36.960Z,1.50
2018-06-21T10:53:05.144Z,1.72
2018-06-21T10:55:34.018Z,1.80
2018-06-21T10:58:02.752Z,1.60
2018-06-21T11:00:31.741Z,1.50
2018-06-21T11:02:59.901Z,1.32
2018-06-21T11:05:28.593Z,1.35
2018-06-21T11:07:56.777Z,1.50
2018-06-21T11:10:25.005Z,1.62
2018-06-21T11:12:53.168Z,1.57
2018-06-21T11:15:21.372Z,1.72
2018-06-21T11:17:50.439Z,1.45
2018-06-21T11:20:18.619Z,1.67
2018-06-21T11:22:47.235Z,1.40
2018-06-21T11:25:15.893Z,1.30
2018-06-21T11:27:44.191Z,1.52
2018-06-21T11:30:12.365Z,1.27
2018-06-21T11:32:40.596Z,1.27
2018-06-21T11:35:09.464Z,1.60
2018-06-21T11:37:37.674Z,1.65
2018-06-21T11:40:05.828Z,1.67
2018-06-21T11:42:34.144Z,1.70
2018-06-21T11:45:02.385Z,1.90
2018-06-21T11:47:31.249Z,1.67
2018-06-21T11:49:59.441Z,1.40
2018-06-21T11:52:27.706Z,1.70
2018-06-21T11:54:55.935Z,1.40
2018-06-21T11:57:24.185Z,1.60
2018-06-21T11:59:52.381Z,1.60
2018-06-21T12:02:20.900Z,1.80
2018-06-21T12:04:53.724Z,1.40
2018-06-21T12:07:30.948Z,1.90
2018-06-21T12:10:00.000Z,1.55
2018-06-21T12:12:32.814Z,1.62
2018-06-21T12:15:01.871Z,1.50
2018-06-21T12:17:31.023Z,1.85
2018-06-21T12:20:00.505Z,1.67
2018-06-21T12:22:28.839Z,1.47
2018-06-21T12:24:57.025Z,1.40
2018-06-21T12:27:25.662Z,1.42
2018-06-21T12:29:53.894Z,1.10
2018-06-21T12:32:22.040Z,1.70
2018-06-21T12:47:50.261Z,1.50
2018-06-21T12:50:19.283Z,1.05
2018-06-21T12:52:48.112Z,1.37
2018-06-21T12:55:17.289Z,1.40
2018-06-21T12:57:45.471Z,1.75
2018-06-21T13:00:13.724Z,1.20
2018-06-21T13:02:42.944Z,1.12
2018-06-21T13:05:11.097Z,1.22
2018-06-21T13:07:40.034Z,1.47
2018-06-21T13:10:13.892Z,1.40
2018-06-21T13:12:48.801Z,1.00
2018-06-21T13:15:17.788Z,1.40
2018-06-21T13:17:45.926Z,1.10
2018-06-21T13:20:14.136Z,1.17
2018-06-21T13:22:42.334Z,1.32
2018-06-21T13:27:35.529Z,1.40
2018-06-21T13:30:04.547Z,1.15
2018-06-21T13:32:32.719Z,1.22
2018-06-21T13:35:01.320Z,1.22
2018-06-21T13:37:29.635Z,1.25
2018-06-21T13:39:58.062Z,0.98
2018-06-21T13:42:27.334Z,1.00
2018-06-21T13:44:55.561Z,1.47
2018-06-21T13:47:24.273Z,1.47
2018-06-21T13:49:52.446Z,0.80
2018-06-21T13:52:20.656Z,0.85
2018-06-21T13:54:48.856Z,0.80
2018-06-21T13:57:17.054Z,0.93
2018-06-21T13:59:45.346Z,0.60
2018-06-21T14:02:13.593Z,0.80
2018-06-21T14:04:41.823Z,0.70
2018-06-21T14:07:09.989Z,0.80
2018-06-21T14:09:38.655Z,1.42
2018-06-21T14:12:07.414Z,1.07
2018-06-21T14:14:36.545Z,0.90
2018-06-21T14:17:04.849Z,0.90
2018-06-21T14:19:34.190Z,1.05
2018-06-21T14:22:02.757Z,0.90
2018-06-21T14:24:31.469Z,1.22
2018-06-21T14:27:00.914Z,0.90
2018-06-21T14:29:29.357Z,1.17
2018-06-21T14:31:58.018Z,1.10
2018-06-21T14:34:26.550Z,0.93
2018-06-21T14:36:55.020Z,1.27
2018-06-21T14:39:24.186Z,1.22
2018-06-21T14:41:52.698Z,0.68
2018-06-21T14:44:21.229Z,1.37
2018-06-21T14:46:49.670Z,1.82
2018-06-21T14:49:18.203Z,1.00
2018-06-21T14:51:46.646Z,1.25
2018-06-21T14:54:15.111Z,0.93
2018-06-21T14:56:48.256Z,1.07
2018-06-21T14:59:18.857Z,1.05
2018-06-21T15:01:47.292Z,1.52
2018-06-21T15:04:16.264Z,0.98
2018-06-21T15:06:44.699Z,1.30
2018-06-21T15:09:14.222Z,1.27
2018-06-21T15:11:42.744Z,1.17
2018-06-21T15:14:11.177Z,1.30
2018-06-21T15:16:40.321Z,0.90
2018-06-21T15:19:09.392Z,0.85
2018-06-21T15:21:37.631Z,0.90
2018-06-21T15:24:06.886Z,0.95
2018-06-21T15:26:36.213Z,1.00
2018-06-21T15:29:04.893Z,1.10
2018-06-21T15:31:33.307Z,0.88
2018-06-21T15:34:07.250Z,1.20
2018-06-21T15:36:35.723Z,0.82
2018-06-21T15:39:15.057Z,0.98
2018-06-21T15:41:47.658Z,2.55
2018-06-21T15:44:16.386Z,0.78
2018-06-21T15:46:44.893Z,0.80
2018-06-21T15:49:14.097Z,1.17
2018-06-21T15:51:42.597Z,1.30
2018-06-21T15:54:11.058Z,0.88
2018-06-21T15:56:40.217Z,1.35
2018-06-21T15:59:08.827Z,0.80
2018-06-21T16:01:37.345Z,0.90
2018-06-21T16:04:05.926Z,0.50
2018-06-21T16:06:34.422Z,0.80
2018-06-21T16:09:04.710Z,0.60
2018-06-21T16:11:33.186Z,0.62
2018-06-21T16:14:01.717Z,0.60
2018-06-21T16:16:32.955Z,2.00
2018-06-21T16:19:01.482Z,5.35
2018-06-21T16:21:29.933Z,0.80
2018-06-21T16:23:58.804Z,0.55
2018-06-21T16:26:27.311Z,1.15
2018-06-21T16:28:56.112Z,0.60
2018-06-21T16:31:24.773Z,0.90
2018-06-21T16:33:55.640Z,0.90
2018-06-21T16:36:28.426Z,0.93
2018-06-21T16:38:57.790Z,0.40
2018-06-21T16:41:28.250Z,0.50
2018-06-21T16:43:56.837Z,0.40
2018-06-21T16:46:26.549Z,0.60
2018-06-21T16:48:56.160Z,0.78
2018-06-21T16:51:29.285Z,0.82
2018-06-21T16:53:58.148Z,0.80
2018-06-21T16:56:26.729Z,0.62
2018-06-21T16:58:55.250Z,0.68
2018-06-21T17:01:23.717Z,0.70
2018-06-21T17:03:52.913Z,0.75
2018-06-21T17:06:21.370Z,0.70
2018-06-21T17:08:49.826Z,0.70
2018-06-21T17:11:23.616Z,0.93
2018-06-21T17:13:52.054Z,0.95
2018-06-21T17:16:21.188Z,1.42
2018-06-21T17:18:49.821Z,0.72
2018-06-21T17:21:18.278Z,1.20
2018-06-21T17:23:46.744Z,0.65
2018-06-21T17:26:17.065Z,0.62
2018-06-21T17:28:46.258Z,0.60
2018-06-21T17:31:14.798Z,0.70
2018-06-21T17:33:42.958Z,0.60
2018-06-21T17:36:11.765Z,0.57
2018-06-21T17:38:40.220Z,1.20
2018-06-21T17:41:09.520Z,0.75
2018-06-21T17:43:39.224Z,3.60
2018-06-21T17:46:07.650Z,0.78
2018-06-21T17:48:36.661Z,0.80
2018-06-21T17:51:05.282Z,0.78
2018-06-21T17:53:34.523Z,0.70
2018-06-21T17:56:03.041Z,0.90
2018-06-21T17:58:32.645Z,1.05
2018-06-21T18:01:02.631Z,0.82
2018-06-21T18:03:31.602Z,0.90
2018-06-21T18:06:05.918Z,0.90
2018-06-21T18:08:34.422Z,0.65
2018-06-21T18:11:04.707Z,0.95
2018-06-21T18:13:34.242Z,0.70
2018-06-21T18:16:02.739Z,0.90
2018-06-21T18:18:33.863Z,1.07
2018-06-21T18:21:09.703Z,0.93
2018-06-21T18:23:37.926Z,0.70
2018-06-21T18:26:06.435Z,1.00
2018-06-21T18:28:36.531Z,0.70
2018-06-21T18:31:09.207Z,1.17
2018-06-21T18:33:38.415Z,0.60
2018-06-21T18:36:07.436Z,0.55
2018-06-21T18:38:36.753Z,0.70
2018-06-21T18:41:07.868Z,0.78
2018-06-21T18:43:36.355Z,0.82
2018-06-21T18:46:06.226Z,0.90
2018-06-21T18:48:35.393Z,1.00
2018-06-21T18:51:06.288Z,0.65
2018-06-21T18:53:36.635Z,0.93
2018-06-21T18:56:07.550Z,1.10
2018-06-21T18:58:36.090Z,1.00
2018-06-21T19:01:05.626Z,1.30
2018-06-21T19:03:34.084Z,0.98
2018-06-21T19:06:03.404Z,0.80
2018-06-21T19:09:38.002Z,0.78
2018-06-21T19:12:09.231Z,0.98
2018-06-21T19:14:38.001Z,1.25
2018-06-21T19:17:06.755Z,1.07
2018-06-21T19:19:35.274Z,0.98
2018-06-21T19:22:05.511Z,1.00
2018-06-21T19:24:34.034Z,1.15
2018-06-21T19:27:02.475Z,1.35
2018-06-21T19:29:31.381Z,1.00
2018-06-21T19:32:00.854Z,0.93
2018-06-21T19:34:31.056Z,0.95
2018-06-21T19:36:59.650Z,1.27
2018-06-21T19:39:28.073Z,1.42
2018-06-21T19:41:58.725Z,1.27
2018-06-21T19:44:27.311Z,1.20
2018-06-21T19:46:55.782Z,1.17
2018-06-21T19:49:24.903Z,1.10
2018-06-21T19:51:53.742Z,0.80
2018-06-21T19:54:22.282Z,0.90
2018-06-21T19:56:50.723Z,0.85
2018-06-21T19:59:19.157Z,1.55
2018-06-21T20:01:47.641Z,1.27
2018-06-21T20:04:16.124Z,1.20
2018-06-21T20:06:44.671Z,0.98
2018-06-21T20:09:14.005Z,1.20
2018-06-21T20:11:42.450Z,1.42
2018-06-21T20:14:11.516Z,1.00
2018-06-21T20:16:41.090Z,0.88
2018-06-21T20:19:12.349Z,5.05
2018-06-21T20:21:40.841Z,1.20
2018-06-21T20:24:09.385Z,1.20
2018-06-21T20:26:37.969Z,1.12
2018-06-21T20:29:11.917Z,1.00
2018-06-21T20:31:40.754Z,1.10
2018-06-21T20:34:09.234Z,1.10
2018-06-21T20:36:38.070Z,2.77
2018-06-21T20:39:09.084Z,7.05
2018-06-21T20:41:37.554Z,1.42
2018-06-21T20:44:06.075Z,1.20
2018-06-21T20:46:36.031Z,1.05
2018-06-21T20:49:04.913Z,1.15
2018-06-21T20:51:33.673Z,0.90
2018-06-21T20:54:02.146Z,0.82
2018-06-21T20:56:30.618Z,1.00
2018-06-21T20:58:59.193Z,4.25
2018-06-21T21:01:27.919Z,3.22
2018-06-21T21:03:56.486Z,3.22
2018-06-21T21:06:25.496Z,1.00
2018-06-21T21:08:53.936Z,1.17
2018-06-21T21:11:22.414Z,1.17
2018-06-21T21:13:50.954Z,1.30
2018-06-21T21:16:19.569Z,24.60
2018-06-21T21:18:48.386Z,8.73
2018-06-21T21:21:21.398Z,2.37
2018-06-21T21:23:50.080Z,1.20
2018-06-21T21:26:19.117Z,1.35
2018-06-21T21:28:47.971Z,1.40
2018-06-21T21:31:16.466Z,1.65
2018-06-21T21:33:44.961Z,1.50
2018-06-21T21:36:14.067Z,1.35
2018-06-21T21:38:43.234Z,2.33
2018-06-21T21:41:12.340Z,1.20
2018-06-21T21:43:41.254Z,1.25
2018-06-21T21:46:09.772Z,1.22
2018-06-21T21:48:39.052Z,1.55
2018-06-21T21:51:07.753Z,1.10
2018-06-21T21:53:36.183Z,1.27
2018-06-21T21:56:04.884Z,1.20
2018-06-21T21:58:33.334Z,1.25
2018-06-21T22:01:01.919Z,1.45
2018-06-21T22:03:31.306Z,1.72
2018-06-21T22:06:00.213Z,1.32
2018-06-21T22:08:29.830Z,1.42
2018-06-21T22:20:43.289Z,1.50
2018-06-21T22:23:12.529Z,2.08
2018-06-21T22:25:41.064Z,1.62
2018-06-21T22:28:09.806Z,2.50
2018-06-21T22:40:23.569Z,1.45
2018-06-21T22:42:51.992Z,1.62
2018-06-21T22:45:20.477Z,1.77
2018-06-21T22:47:49.037Z,1.55
2018-06-21T22:50:18.053Z,1.60
2018-06-21T22:52:47.688Z,1.20
2018-06-21T22:55:16.113Z,1.67
2018-06-21T22:57:44.579Z,1.32
2018-06-21T23:00:13.041Z,1.30
2018-06-21T23:02:41.618Z,1.45
2018-06-21T23:05:10.471Z,1.37
2018-06-21T23:07:39.214Z,1.57
2018-06-21T23:10:07.625Z,2.40
2018-06-21T23:12:36.050Z,1.55
2018-06-21T23:15:04.532Z,1.47
2018-06-21T23:17:33.221Z,1.57
2018-06-21T23:20:01.713Z,1.87
2018-06-21T23:22:30.232Z,1.50
2018-06-21T23:24:59.754Z,1.27
2018-06-21T23:27:28.421Z,1.62
2018-06-21T23:29:57.374Z,1.30
2018-06-21T23:32:26.821Z,1.50
2018-06-21T23:34:55.248Z,1.90
2018-06-21T23:37:23.729Z,1.25
2018-06-21T23:39:52.529Z,1.35
2018-06-21T23:42:20.960Z,1.20
2018-06-21T23:44:49.481Z,1.20
2018-06-21T23:47:18.444Z,1.35
2018-06-21T23:49:46.860Z,1.45
2018-06-21T23:52:15.658Z,1.22
2018-06-21T23:54:44.128Z,1.32
2018-06-21T23:57:13.368Z,1.50
2018-06-21T23:59:42.502Z,1.62
